Time;durP1;ratioP1;P1;durP2;ratioP2;P2;SDS_P1;SDS_P2;PMS_P1;PMS_P2;Temp;Humidity;BMP_temperature;BMP_pressure;BME280_temperature;BME280_humidity;BME280_pressure;Samples;Min_cycle;Max_cycle;Signal;HPM_P1;HPM_P2
2022/05/16 00:00:12;;;;;;;12.52;5.95;;;;;;;;;;5085564;28;20051;-73
2022/05/16 00:02:39;;;;;;;;;;;;;;;;;;5089602;28;20055;-73
2022/05/16 00:05:06;;;;;;;12.60;5.30;;;;;;;;;;5088135;28;20507;-73
2022/05/16 00:07:32;;;;;;;9.95;6.20;;;;;;;;;;5084314;28;20097;-73
2022/05/16 00:09:59;;;;;;;11.57;6.63;;;;;;;;;;5086024;28;20055;-73
2022/05/16 00:12:25;;;;;;;9.50;5.72;;;;;;;;;;5084478;28;20043;-73
2022/05/16 00:14:51;;;;;;;10.70;6.38;;;;;;;;;;5087998;27;20040;-73
2022/05/16 00:17:17;;;;;;;9.00;6.25;;;;;;;;;;5084061;28;20036;-73
2022/05/16 00:19:43;;;;;;;13.20;6.25;;;;;;;;;;5085860;28;20181;-73
2022/05/16 00:22:10;;;;;;;16.48;7.45;;;;;;;;;;5098153;28;20039;-72
2022/05/16 00:24:39;;;;;;;10.73;6.43;;;;;;;;;;5092545;28;20070;-73
2022/05/16 00:27:05;;;;;;;10.95;5.82;;;;;;;;;;5084121;27;20050;-73
2022/05/16 00:29:31;;;;;;;12.85;6.40;;;;;;;;;;5093268;28;20044;-73
2022/05/16 00:31:57;;;;;;;13.50;6.38;;;;;;;;;;5087601;28;20043;-73
2022/05/16 00:34:24;;;;;;;9.98;5.75;;;;;;;;;;5084100;27;20105;-73
2022/05/16 00:36:50;;;;;;;9.20;5.70;;;;;;;;;;5083066;28;20059;-73
2022/05/16 00:39:17;;;;;;;10.13;5.68;;;;;;;;;;5092470;28;20036;-73
2022/05/16 00:41:44;;;;;;;16.70;7.05;;;;;;;;;;5083459;27;20437;-73
2022/05/16 00:44:10;;;;;;;14.85;6.63;;;;;;;;;;5084535;28;20055;-74
2022/05/16 00:46:36;;;;;;;13.38;6.20;;;;;;;;;;5084072;27;20135;-73
2022/05/16 00:49:04;;;;;;;9.60;5.53;;;;;;;;;;5084555;28;20032;-72
2022/05/16 00:51:32;;;;;;;11.07;5.68;;;;;;;;;;5084734;28;20060;-73
2022/05/16 00:54:04;;;;;;;8.65;5.03;;;;;;;;;;5086334;28;20065;-73
2022/05/16 00:56:31;;;;;;;11.97;6.33;;;;;;;;;;5085814;28;20380;-73
2022/05/16 00:58:57;;;;;;;10.85;6.10;;;;;;;;;;5088116;28;20339;-73
2022/05/16 01:06:55;;;;;;;9.93;6.28;;;;;;;;;;5082284;28;20051;-73
2022/05/16 01:09:21;;;;;;;13.73;6.72;;;;;;;;;;5086105;28;20043;-73
2022/05/16 01:11:47;;;;;;;7.35;5.35;;;;;;;;;;5083317;28;20177;-73
2022/05/16 01:14:32;;;;;;;12.63;5.88;;;;;;;;;;5084567;28;20393;-73
2022/05/16 01:16:59;;;;;;;11.93;6.60;;;;;;;;;;5085272;28;20075;-73
2022/05/16 01:19:25;;;;;;;9.45;5.82;;;;;;;;;;5086601;28;20430;-73
2022/05/16 01:21:51;;;;;;;8.98;5.82;;;;;;;;;;5083931;28;20053;-73
2022/05/16 01:24:18;;;;;;;19.33;6.75;;;;;;;;;;5090032;27;20437;-73
2022/05/16 01:26:44;;;;;;;9.25;6.03;;;;;;;;;;5096805;28;20417;-73
2022/05/16 01:29:11;;;;;;;7.75;5.22;;;;;;;;;;5089340;28;20040;-73
2022/05/16 01:31:37;;;;;;;10.68;5.35;;;;;;;;;;5087457;28;20549;-73
2022/05/16 01:34:04;;;;;;;9.30;5.70;;;;;;;;;;5085212;28;20047;-73
2022/05/16 01:36:30;;;;;;;11.50;6.65;;;;;;;;;;5073617;28;20055;-73
2022/05/16 01:38:56;;;;;;;10.95;5.35;;;;;;;;;;5089962;28;20156;-73
2022/05/16 01:41:24;;;;;;;9.02;5.22;;;;;;;;;;5087154;28;20039;-73
2022/05/16 01:43:54;;;;;;;10.10;4.63;;;;;;;;;;5090134;28;20047;-73
2022/05/16 01:46:22;;;;;;;10.38;4.97;;;;;;;;;;5083819;28;20048;-73
2022/05/16 01:48:48;;;;;;;13.60;6.63;;;;;;;;;;5091378;28;20039;-73
2022/05/16 01:51:15;;;;;;;9.00;5.45;;;;;;;;;;5084942;28;20502;-73
2022/05/16 01:53:42;;;;;;;11.07;5.93;;;;;;;;;;5087045;28;20035;-73
2022/05/16 01:56:08;;;;;;;9.40;6.03;;;;;;;;;;5082872;28;20051;-72
2022/05/16 01:58:34;;;;;;;11.07;5.80;;;;;;;;;;5083411;28;20135;-73
2022/05/16 02:01:02;;;;;;;8.30;5.90;;;;;;;;;;5084618;28;20588;-73
2022/05/16 02:03:28;;;;;;;12.45;5.13;;;;;;;;;;5088078;28;20040;-73
2022/05/16 02:05:54;;;;;;;7.05;5.22;;;;;;;;;;5094693;28;20512;-73
2022/05/16 02:08:21;;;;;;;10.18;5.22;;;;;;;;;;5085636;28;20126;-73
2022/05/16 02:10:47;;;;;;;9.60;5.20;;;;;;;;;;5086460;28;20036;-73
2022/05/16 02:13:13;;;;;;;15.32;5.88;;;;;;;;;;5088984;27;20055;-73
2022/05/16 02:15:40;;;;;;;7.57;6.05;;;;;;;;;;5087752;28;20056;-73
2022/05/16 02:18:08;;;;;;;6.35;5.00;;;;;;;;;;5096306;27;20543;-73
2022/05/16 02:20:34;;;;;;;8.93;4.68;;;;;;;;;;5087856;27;20047;-74
2022/05/16 02:25:46;;;;;;;10.07;5.40;;;;;;;;;;5096174;27;20279;-73
2022/05/16 02:28:14;;;;;;;8.80;5.15;;;;;;;;;;5087943;27;20124;-73
2022/05/16 02:30:41;;;;;;;11.68;5.32;;;;;;;;;;5090353;27;20044;-73
2022/05/16 02:33:08;;;;;;;8.80;4.60;;;;;;;;;;5088544;28;20462;-73
2022/05/16 02:35:34;;;;;;;8.13;5.05;;;;;;;;;;5086864;28;20044;-73
2022/05/16 02:38:00;;;;;;;9.20;4.82;;;;;;;;;;5092669;28;20093;-73
2022/05/16 02:40:27;;;;;;;8.00;4.70;;;;;;;;;;5090217;27;20571;-73
2022/05/16 02:42:53;;;;;;;10.38;5.65;;;;;;;;;;5088352;28;20036;-73
2022/05/16 02:45:20;;;;;;;7.55;4.78;;;;;;;;;;5091039;28;20396;-73
2022/05/16 02:47:46;;;;;;;7.05;4.55;;;;;;;;;;5094707;27;20043;-73
2022/05/16 02:50:12;;;;;;;14.85;5.45;;;;;;;;;;5088942;28;20087;-73
2022/05/16 02:52:39;;;;;;;11.40;4.47;;;;;;;;;;5085853;27;20050;-73
2022/05/16 02:55:06;;;;;;;12.48;5.60;;;;;;;;;;5092811;27;20044;-73
2022/05/16 02:57:32;;;;;;;8.10;4.45;;;;;;;;;;5091565;27;20561;-73
2022/05/16 02:59:59;;;;;;;8.23;4.30;;;;;;;;;;5087052;27;20043;-74
2022/05/16 03:02:25;;;;;;;6.93;3.58;;;;;;;;;;5087220;27;20728;-73
2022/05/16 03:04:51;;;;;;;6.90;4.53;;;;;;;;;;5077818;28;20048;-73
2022/05/16 03:07:18;;;;;;;7.15;3.97;;;;;;;;;;5085266;27;20036;-74
2022/05/16 03:09:45;;;;;;;7.00;3.97;;;;;;;;;;5085668;28;20044;-73
2022/05/16 03:12:11;;;;;;;6.82;4.40;;;;;;;;;;5087189;27;20561;-73
2022/05/16 03:14:37;;;;;;;8.05;3.92;;;;;;;;;;5091757;27;20475;-73
2022/05/16 03:17:04;;;;;;;8.52;3.83;;;;;;;;;;5086694;28;20048;-73
2022/05/16 03:19:30;;;;;;;7.38;4.05;;;;;;;;;;5087163;28;20043;-73
2022/05/16 03:21:56;;;;;;;5.78;3.70;;;;;;;;;;5087003;27;20674;-73
2022/05/16 03:24:22;;;;;;;6.78;3.83;;;;;;;;;;5085286;27;20278;-73
2022/05/16 03:26:49;;;;;;;6.15;4.18;;;;;;;;;;5085479;27;20394;-73
2022/05/16 03:29:16;;;;;;;6.30;3.85;;;;;;;;;;5095265;28;20044;-73
2022/05/16 03:31:43;;;;;;;7.65;3.92;;;;;;;;;;5087170;27;20040;-73
2022/05/16 03:34:09;;;;;;;11.18;4.15;;;;;;;;;;5068666;28;20083;-73
2022/05/16 03:36:36;;;;;;;6.60;3.58;;;;;;;;;;5095600;28;20063;-73
2022/05/16 03:41:48;;;;;;;7.88;3.15;;;;;;;;;;5087585;27;20051;-73
2022/05/16 03:44:14;;;;;;;8.00;3.35;;;;;;;;;;5091769;28;20086;-74
2022/05/16 03:46:40;;;;;;;5.45;3.08;;;;;;;;;;5086074;27;20402;-74
2022/05/16 03:49:07;;;;;;;5.85;3.38;;;;;;;;;;5086390;27;20596;-73
2022/05/16 03:51:33;;;;;;;6.53;3.47;;;;;;;;;;5086158;27;20383;-74
2022/05/16 03:53:59;;;;;;;10.32;3.13;;;;;;;;;;5084609;28;20044;-73
2022/05/16 03:56:27;;;;;;;5.22;3.53;;;;;;;;;;5085359;28;20050;-73
2022/05/16 03:58:54;;;;;;;5.95;3.00;;;;;;;;;;5089389;27;20040;-74
2022/05/16 04:01:21;;;;;;;7.80;3.35;;;;;;;;;;5085422;27;20040;-73
2022/05/16 04:03:48;;;;;;;5.45;3.13;;;;;;;;;;5085438;28;20084;-72
2022/05/16 04:06:14;;;;;;;5.88;2.80;;;;;;;;;;5084694;28;20055;-73
2022/05/16 04:08:42;;;;;;;6.65;3.15;;;;;;;;;;5090070;28;20286;-73
2022/05/16 04:11:08;;;;;;;7.18;3.10;;;;;;;;;;5088085;27;20898;-74
2022/05/16 04:13:35;;;;;;;8.55;3.60;;;;;;;;;;5084326;28;20040;-73
2022/05/16 04:16:02;;;;;;;6.93;2.78;;;;;;;;;;5094254;28;20282;-73
2022/05/16 04:18:32;;;;;;;5.47;2.90;;;;;;;;;;5099736;28;20051;-72
2022/05/16 04:20:58;;;;;;;8.32;3.80;;;;;;;;;;5098758;27;20075;-74
2022/05/16 04:23:25;;;;;;;5.68;2.67;;;;;;;;;;5090044;28;20044;-73
2022/05/16 04:25:51;;;;;;;6.03;2.95;;;;;;;;;;5084378;28;20059;-74
2022/05/16 04:28:17;;;;;;;5.72;3.10;;;;;;;;;;5088033;28;20443;-73
2022/05/16 04:30:43;;;;;;;5.30;2.78;;;;;;;;;;5083303;28;20595;-74
2022/05/16 04:33:10;;;;;;;5.30;3.22;;;;;;;;;;5085850;28;20040;-74
2022/05/16 04:35:37;;;;;;;5.72;2.63;;;;;;;;;;5084774;28;20047;-73
2022/05/16 04:38:04;;;;;;;6.03;2.85;;;;;;;;;;5088757;28;20119;-74
2022/05/16 04:40:30;;;;;;;9.73;3.45;;;;;;;;;;5087009;27;20040;-73
2022/05/16 04:42:58;;;;;;;6.97;3.20;;;;;;;;;;5084418;28;20039;-73
2022/05/16 04:45:26;;;;;;;4.55;2.70;;;;;;;;;;5091471;27;20040;-73
2022/05/16 04:47:53;;;;;;;6.22;2.70;;;;;;;;;;5088778;27;20097;-74
2022/05/16 04:50:22;;;;;;;10.27;2.90;;;;;;;;;;5085225;27;20095;-73
2022/05/16 04:52:49;;;;;;;7.00;3.45;;;;;;;;;;5083026;28;20042;-74
2022/05/16 04:55:15;;;;;;;7.10;2.72;;;;;;;;;;5084699;28;20469;-74
2022/05/16 04:57:42;;;;;;;8.98;3.53;;;;;;;;;;5085088;28;20082;-72
2022/05/16 05:00:11;;;;;;;10.65;3.80;;;;;;;;;;5087123;28;20108;-73
2022/05/16 05:02:39;;;;;;;10.18;3.80;;;;;;;;;;5093003;28;20107;-73
2022/05/16 05:05:07;;;;;;;8.27;2.95;;;;;;;;;;5094822;28;20073;-74
2022/05/16 05:07:33;;;;;;;5.63;2.95;;;;;;;;;;5097208;28;20106;-73
2022/05/16 05:15:30;;;;;;;7.75;2.63;;;;;;;;;;5091426;28;20040;-74
2022/05/16 05:17:57;;;;;;;6.43;3.42;;;;;;;;;;5074167;28;20314;-72
2022/05/16 05:20:23;;;;;;;8.35;3.58;;;;;;;;;;5080837;28;20028;-74
2022/05/16 05:22:49;;;;;;;6.20;2.92;;;;;;;;;;5085616;28;20043;-73
2022/05/16 05:25:17;;;;;;;4.03;2.95;;;;;;;;;;5093405;28;20032;-74
2022/05/16 05:27:44;;;;;;;6.03;2.75;;;;;;;;;;5095287;28;20472;-73
2022/05/16 05:30:12;;;;;;;8.23;3.10;;;;;;;;;;5092591;28;20097;-74
2022/05/16 05:32:38;;;;;;;5.28;2.88;;;;;;;;;;5098461;28;20079;-73
2022/05/16 05:35:05;;;;;;;5.53;2.90;;;;;;;;;;5082986;28;20130;-74
2022/05/16 05:37:31;;;;;;;5.35;3.30;;;;;;;;;;5083862;28;20094;-73
2022/05/16 05:40:00;;;;;;;5.65;3.10;;;;;;;;;;5085789;28;20051;-74
2022/05/16 05:42:27;;;;;;;5.47;2.72;;;;;;;;;;5089946;28;20055;-73
2022/05/16 05:44:53;;;;;;;7.15;2.70;;;;;;;;;;5090525;27;20623;-73
2022/05/16 05:47:20;;;;;;;10.60;3.53;;;;;;;;;;5087605;27;20165;-74
2022/05/16 05:49:46;;;;;;;8.10;3.75;;;;;;;;;;5088229;27;20039;-72
2022/05/16 05:52:15;;;;;;;7.95;3.10;;;;;;;;;;5084196;28;20190;-74
2022/05/16 05:54:41;;;;;;;5.10;3.10;;;;;;;;;;5088029;27;20048;-74
2022/05/16 05:57:08;;;;;;;6.57;3.28;;;;;;;;;;5088817;27;20040;-73
2022/05/16 05:59:34;;;;;;;5.47;3.45;;;;;;;;;;5090242;27;20075;-74
2022/05/16 06:02:00;;;;;;;7.22;3.17;;;;;;;;;;5085556;27;20040;-74
2022/05/16 06:04:27;;;;;;;5.97;2.75;;;;;;;;;;5086856;27;20633;-74
2022/05/16 06:06:53;;;;;;;6.45;3.53;;;;;;;;;;5086671;27;20072;-74
2022/05/16 06:09:19;;;;;;;8.07;3.03;;;;;;;;;;5090123;28;20461;-74
2022/05/16 06:11:48;;;;;;;5.90;3.40;;;;;;;;;;5085906;27;20047;-74
2022/05/16 06:14:14;;;;;;;6.78;3.33;;;;;;;;;;5087376;28;20173;-74
2022/05/16 06:16:41;;;;;;;11.45;3.47;;;;;;;;;;5093938;28;20044;-74
2022/05/16 06:19:08;;;;;;;6.20;2.65;;;;;;;;;;5092751;27;20044;-74
2022/05/16 06:21:34;;;;;;;5.63;2.85;;;;;;;;;;5097213;28;20067;-74
2022/05/16 06:24:01;;;;;;;7.22;3.10;;;;;;;;;;5087648;27;20512;-74
2022/05/16 06:26:28;;;;;;;6.75;3.75;;;;;;;;;;5090309;28;20048;-74
2022/05/16 06:28:55;;;;;;;8.00;3.45;;;;;;;;;;5094378;28;20049;-74
2022/05/16 06:31:21;;;;;;;4.80;2.80;;;;;;;;;;5099255;28;20072;-74
2022/05/16 06:33:47;;;;;;;10.10;3.00;;;;;;;;;;5086736;28;20050;-74
2022/05/16 06:36:15;;;;;;;6.25;3.70;;;;;;;;;;5086458;28;20052;-74
2022/05/16 06:38:41;;;;;;;9.13;3.45;;;;;;;;;;5090204;27;20540;-74
2022/05/16 06:41:08;;;;;;;5.13;3.00;;;;;;;;;;5099607;28;20044;-74
2022/05/16 06:43:34;;;;;;;6.78;3.22;;;;;;;;;;5095444;28;20036;-74
2022/05/16 06:46:02;;;;;;;7.53;3.33;;;;;;;;;;5089235;27;20081;-74
2022/05/16 06:48:28;;;;;;;5.22;3.17;;;;;;;;;;5088984;28;20417;-74
2022/05/16 06:50:54;;;;;;;7.65;3.83;;;;;;;;;;5096317;28;20449;-74
2022/05/16 06:53:22;;;;;;;4.88;3.03;;;;;;;;;;5085054;28;20573;-74
2022/05/16 06:55:48;;;;;;;7.75;3.25;;;;;;;;;;5091357;28;20044;-74
2022/05/16 06:58:14;;;;;;;8.10;3.75;;;;;;;;;;5088999;28;20073;-74
2022/05/16 07:00:41;;;;;;;9.32;3.78;;;;;;;;;;5068027;28;20146;-74
2022/05/16 07:03:07;;;;;;;8.73;3.08;;;;;;;;;;5091017;28;20040;-74
2022/05/16 07:05:34;;;;;;;5.85;3.05;;;;;;;;;;5096861;28;20357;-74
2022/05/16 07:08:00;;;;;;;6.15;2.80;;;;;;;;;;5100629;28;20483;-74
2022/05/16 07:10:26;;;;;;;6.90;3.42;;;;;;;;;;5083987;28;20038;-74
2022/05/16 07:12:52;;;;;;;8.90;4.45;;;;;;;;;;5087632;28;20506;-74
2022/05/16 07:15:20;;;;;;;5.50;3.22;;;;;;;;;;5085790;28;20118;-74
2022/05/16 07:17:46;;;;;;;4.45;2.67;;;;;;;;;;5097233;28;20139;-74
2022/05/16 07:20:13;;;;;;;6.38;3.30;;;;;;;;;;5087303;28;20072;-74
2022/05/16 07:22:45;;;;;;;9.18;3.50;;;;;;;;;;5083892;28;20036;-74
2022/05/16 07:25:12;;;;;;;9.20;3.60;;;;;;;;;;5092055;28;20082;-74
2022/05/16 07:27:56;;;;;;;8.52;3.35;;;;;;;;;;5067616;28;20044;-74
2022/05/16 07:30:24;;;;;;;9.10;3.00;;;;;;;;;;5097726;28;20126;-74
2022/05/16 07:32:51;;;;;;;8.00;3.70;;;;;;;;;;5093403;28;20050;-74
2022/05/16 07:35:19;;;;;;;5.65;3.72;;;;;;;;;;5085168;28;20383;-74
2022/05/16 07:37:45;;;;;;;6.70;3.40;;;;;;;;;;5083405;28;20194;-75
2022/05/16 07:40:12;;;;;;;7.18;3.30;;;;;;;;;;5085074;28;20044;-74
2022/05/16 07:42:39;;;;;;;7.38;3.45;;;;;;;;;;5084416;28;20080;-74
2022/05/16 07:45:06;;;;;;;11.20;3.13;;;;;;;;;;5088104;28;20044;-74
2022/05/16 07:47:32;;;;;;;7.57;3.08;;;;;;;;;;5085617;28;20567;-74
2022/05/16 07:49:59;;;;;;;7.30;3.67;;;;;;;;;;5051896;28;1138037;-74
2022/05/16 07:52:25;;;;;;;8.00;3.92;;;;;;;;;;5084448;27;20058;-74
2022/05/16 07:54:52;;;;;;;5.57;3.58;;;;;;;;;;5086164;28;20043;-74
2022/05/16 07:57:18;;;;;;;7.25;3.30;;;;;;;;;;5086731;27;20048;-74
2022/05/16 07:59:46;;;;;;;8.02;3.63;;;;;;;;;;5095631;27;20044;-74
2022/05/16 08:02:13;;;;;;;6.45;3.63;;;;;;;;;;5084206;28;20044;-74
2022/05/16 08:04:39;;;;;;;9.55;4.00;;;;;;;;;;5099140;27;20058;-74
2022/05/16 08:07:06;;;;;;;8.55;3.42;;;;;;;;;;5087129;28;20055;-75
2022/05/16 08:12:24;;;;;;;6.68;4.03;;;;;;;;;;5091422;27;20520;-74
2022/05/16 08:14:50;;;;;;;6.82;3.33;;;;;;;;;;5085516;27;20126;-74
2022/05/16 08:17:16;;;;;;;4.70;3.38;;;;;;;;;;5096505;28;20392;-74
2022/05/16 08:19:42;;;;;;;9.15;4.03;;;;;;;;;;5087882;28;20726;-74
2022/05/16 08:22:09;;;;;;;11.32;3.83;;;;;;;;;;5084455;27;20506;-74
2022/05/16 08:24:35;;;;;;;11.98;4.10;;;;;;;;;;5085198;27;20126;-74
2022/05/16 08:27:02;;;;;;;10.20;3.80;;;;;;;;;;5085541;28;20048;-75
2022/05/16 08:29:29;;;;;;;7.25;3.80;;;;;;;;;;5093758;27;20090;-75
2022/05/16 08:31:56;;;;;;;9.52;4.18;;;;;;;;;;5092074;28;20071;-74
2022/05/16 08:34:23;;;;;;;9.35;4.50;;;;;;;;;;5090062;28;20252;-74
2022/05/16 08:39:52;;;;;;;6.35;3.95;;;;;;;;;;5090263;28;20121;-75
2022/05/16 08:42:22;;;;;;;10.02;3.08;;;;;;;;;;5100312;28;20365;-75
2022/05/16 08:44:58;;;;;;;7.22;4.35;;;;;;;;;;5086348;28;20039;-74
2022/05/16 08:48:03;;;;;;;5.80;3.45;;;;;;;;;;5092491;28;20243;-75
2022/05/16 08:50:34;;;;;;;5.00;3.92;;;;;;;;;;5041001;28;20087;-74
2022/05/16 08:53:03;;;;;;;8.05;3.90;;;;;;;;;;5040601;28;20120;-75
2022/05/16 08:55:29;;;;;;;9.10;4.43;;;;;;;;;;5063996;28;20048;-75
2022/05/16 08:58:02;;;;;;;9.50;3.95;;;;;;;;;;5084607;28;20152;-75
2022/05/16 09:00:54;;;;;;;8.40;3.50;;;;;;;;;;5085210;28;20430;-75
2022/05/16 09:03:38;;;;;;;10.98;3.13;;;;;;;;;;5096761;27;20084;-74
2022/05/16 09:06:12;;;;;;;5.90;4.07;;;;;;;;;;5083204;28;20047;-74
2022/05/16 09:08:51;;;;;;;13.68;4.07;;;;;;;;;;5083980;28;20504;-75
2022/05/16 09:11:20;;;;;;;7.68;3.33;;;;;;;;;;5085332;28;20083;-75
2022/05/16 09:13:58;;;;;;;8.75;3.42;;;;;;;;;;5088637;28;20631;-74
2022/05/16 09:16:37;;;;;;;10.60;3.47;;;;;;;;;;5090554;28;20400;-75
2022/05/16 09:19:22;;;;;;;9.43;3.92;;;;;;;;;;5086260;28;20482;-73
2022/05/16 09:21:56;;;;;;;10.48;3.58;;;;;;;;;;5083906;28;20298;-74
2022/05/16 09:24:28;;;;;;;10.35;3.30;;;;;;;;;;5083726;28;20047;-75
2022/05/16 09:26:55;;;;;;;7.00;3.78;;;;;;;;;;5092875;28;20080;-75
2022/05/16 09:29:31;;;;;;;5.50;3.08;;;;;;;;;;5082765;28;20047;-74
2022/05/16 09:32:04;;;;;;;6.07;3.47;;;;;;;;;;5083025;28;20075;-74
2022/05/16 09:34:30;;;;;;;14.48;3.80;;;;;;;;;;5084604;28;20050;-75
2022/05/16 09:36:57;;;;;;;9.35;3.67;;;;;;;;;;5093848;28;20277;-75
2022/05/16 09:39:31;;;;;;;9.63;3.63;;;;;;;;;;5087523;28;20043;-75
2022/05/16 09:42:10;;;;;;;9.23;3.50;;;;;;;;;;5099109;28;20509;-75
2022/05/16 09:44:43;;;;;;;7.28;3.38;;;;;;;;;;5086271;28;20275;-74
2022/05/16 09:47:12;;;;;;;8.18;3.50;;;;;;;;;;5083789;28;20296;-74
2022/05/16 09:49:38;;;;;;;9.30;3.95;;;;;;;;;;5084200;28;20071;-75
2022/05/16 09:52:04;;;;;;;12.93;4.20;;;;;;;;;;5081999;28;20476;-74
2022/05/16 09:54:37;;;;;;;7.80;4.15;;;;;;;;;;5084253;28;20520;-74
2022/05/16 09:57:04;;;;;;;11.18;3.78;;;;;;;;;;5084441;28;20048;-74
2022/05/16 09:59:34;;;;;;;9.40;4.03;;;;;;;;;;5084459;28;20370;-74
2022/05/16 10:02:10;;;;;;;6.70;4.18;;;;;;;;;;5098064;28;20079;-75
2022/05/16 10:04:42;;;;;;;10.55;4.35;;;;;;;;;;5099900;28;20135;-74
2022/05/16 10:07:08;;;;;;;9.70;3.55;;;;;;;;;;5082399;28;20140;-74
2022/05/16 10:09:38;;;;;;;8.13;3.97;;;;;;;;;;5081889;28;20047;-74
2022/05/16 10:12:07;;;;;;;7.45;4.43;;;;;;;;;;5085587;28;20502;-74
2022/05/16 10:14:36;;;;;;;9.18;3.67;;;;;;;;;;5087879;28;20047;-74
2022/05/16 10:17:03;;;;;;;7.20;3.78;;;;;;;;;;5090138;28;20534;-74
2022/05/16 10:19:32;;;;;;;6.80;3.92;;;;;;;;;;5091940;28;20266;-74
2022/05/16 10:22:14;;;;;;;8.18;3.50;;;;;;;;;;5088223;28;20036;-74
2022/05/16 10:24:43;;;;;;;9.40;4.93;;;;;;;;;;5083714;28;20491;-74
2022/05/16 10:27:11;;;;;;;6.00;3.55;;;;;;;;;;5084464;28;20070;-74
2022/05/16 10:29:48;;;;;;;12.60;5.18;;;;;;;;;;5095686;27;20032;-74
2022/05/16 10:35:41;;;;;;;10.10;4.13;;;;;;;;;;5042880;28;20041;-74
2022/05/16 10:38:10;;;;;;;7.38;3.65;;;;;;;;;;5094612;27;20054;-74
2022/05/16 10:40:42;;;;;;;6.05;3.17;;;;;;;;;;5090129;27;20040;-74
2022/05/16 10:43:14;;;;;;;8.70;3.88;;;;;;;;;;5098464;27;20040;-74
2022/05/16 10:45:40;;;;;;;;;;;;;;;;;;5093417;28;20080;-74
2022/05/16 10:48:19;;;;;;;7.18;4.32;;;;;;;;;;5088122;27;19970;-74
2022/05/16 10:50:51;;;;;;;7.45;3.70;;;;;;;;;;5086664;28;20557;-74
2022/05/16 10:53:21;;;;;;;10.65;4.18;;;;;;;;;;5087420;28;20052;-74
2022/05/16 10:55:53;;;;;;;15.43;4.35;;;;;;;;;;5096689;27;20273;-74
2022/05/16 10:58:22;;;;;;;6.45;2.85;;;;;;;;;;5093312;28;20081;-74
2022/05/16 11:00:57;;;;;;;8.82;3.88;;;;;;;;;;5098103;27;20121;-74
2022/05/16 11:03:45;;;;;;;7.00;3.67;;;;;;;;;;5086193;28;20562;-74
2022/05/16 11:06:25;;;;;;;9.45;3.90;;;;;;;;;;5086807;27;20130;-74
2022/05/16 11:09:09;;;;;;;8.10;3.80;;;;;;;;;;5095289;27;20104;-74
2022/05/16 11:11:55;;;;;;;9.00;3.92;;;;;;;;;;5090197;28;20120;-74
2022/05/16 11:14:28;;;;;;;8.07;4.10;;;;;;;;;;5100887;27;20032;-74
2022/05/16 11:16:56;;;;;;;11.75;5.18;;;;;;;;;;5092113;28;20048;-74
2022/05/16 11:19:41;;;;;;;8.20;3.80;;;;;;;;;;5090311;27;20323;-74
2022/05/16 11:22:13;;;;;;;9.13;5.40;;;;;;;;;;5084554;27;20040;-74
2022/05/16 11:24:53;;;;;;;9.35;4.70;;;;;;;;;;5096382;28;20047;-74
2022/05/16 11:27:19;;;;;;;9.63;4.18;;;;;;;;;;5090659;28;20035;-74
2022/05/16 11:29:50;;;;;;;8.30;4.00;;;;;;;;;;5086747;27;20043;-74
2022/05/16 11:32:22;;;;;;;8.68;4.47;;;;;;;;;;5096890;27;20040;-74
2022/05/16 11:35:14;;;;;;;8.63;4.57;;;;;;;;;;5099236;27;20036;-74
2022/05/16 11:37:46;;;;;;;11.73;4.97;;;;;;;;;;5083871;28;20412;-73
2022/05/16 11:40:22;;;;;;;13.57;5.10;;;;;;;;;;5085733;27;20089;-74
2022/05/16 11:43:04;;;;;;;8.60;4.47;;;;;;;;;;5089185;27;20044;-73
2022/05/16 11:45:37;;;;;;;6.57;3.93;;;;;;;;;;5085638;27;20047;-73
2022/05/16 11:48:17;;;;;;;12.15;5.35;;;;;;;;;;5097383;28;20274;-74
2022/05/16 11:50:50;;;;;;;11.27;4.70;;;;;;;;;;5099855;27;20413;-74
2022/05/16 11:53:34;;;;;;;15.15;5.75;;;;;;;;;;5086845;27;20451;-74
2022/05/16 12:01:30;;;;;;;8.85;5.25;;;;;;;;;;5083421;28;20100;-74
2022/05/16 12:04:12;;;;;;;13.05;5.35;;;;;;;;;;5084689;27;20047;-73
2022/05/16 12:06:39;;;;;;;13.32;5.57;;;;;;;;;;5088229;27;20378;-74
2022/05/16 12:09:18;;;;;;;16.33;5.55;;;;;;;;;;5085779;27;20115;-74
2022/05/16 12:11:51;;;;;;;12.52;5.40;;;;;;;;;;5094559;28;20048;-74
2022/05/16 12:14:29;;;;;;;11.00;6.45;;;;;;;;;;5090804;28;20039;-74
2022/05/16 12:17:13;;;;;;;11.55;6.03;;;;;;;;;;5091308;27;20051;-73
2022/05/16 12:19:43;;;;;;;10.07;6.15;;;;;;;;;;5086741;27;20040;-74
2022/05/16 12:22:17;;;;;;;15.23;5.68;;;;;;;;;;5090009;28;20036;-74
2022/05/16 12:25:01;;;;;;;8.25;5.57;;;;;;;;;;5087786;27;20039;-74
2022/05/16 12:27:36;;;;;;;10.68;6.72;;;;;;;;;;5096519;27;20407;-74
2022/05/16 12:30:08;;;;;;;10.18;6.15;;;;;;;;;;5084316;28;20044;-73
2022/05/16 12:32:34;;;;;;;8.37;5.63;;;;;;;;;;5085516;27;20105;-73
2022/05/16 12:35:03;;;;;;;12.40;6.65;;;;;;;;;;5093792;27;20297;-73
2022/05/16 12:37:29;;;;;;;10.27;6.20;;;;;;;;;;5095154;28;20054;-73
2022/05/16 12:40:11;;;;;;;10.73;6.70;;;;;;;;;;5084182;28;20087;-74
2022/05/16 12:42:49;;;;;;;14.93;7.40;;;;;;;;;;5082513;28;20044;-74
2022/05/16 12:45:35;;;;;;;11.82;7.30;;;;;;;;;;5086812;27;20056;-73
2022/05/16 12:48:26;;;;;;;11.75;7.18;;;;;;;;;;5088556;28;20079;-74
2022/05/16 12:51:00;;;;;;;9.95;6.10;;;;;;;;;;5082767;27;20068;-74
2022/05/16 12:53:38;;;;;;;16.80;7.53;;;;;;;;;;5088794;28;20039;-74
2022/05/16 12:56:04;;;;;;;11.63;7.70;;;;;;;;;;5085087;27;20080;-73
2022/05/16 12:58:40;;;;;;;11.48;6.85;;;;;;;;;;5082778;27;20051;-73
2022/05/16 13:01:07;;;;;;;15.88;8.20;;;;;;;;;;5090550;28;20568;-74
2022/05/16 13:03:46;;;;;;;13.25;8.02;;;;;;;;;;5082986;28;20493;-73
2022/05/16 13:06:25;;;;;;;11.68;7.15;;;;;;;;;;5083829;28;20413;-74
2022/05/16 13:08:56;;;;;;;15.00;7.72;;;;;;;;;;5094398;28;20047;-74
2022/05/16 13:11:45;;;;;;;13.82;8.93;;;;;;;;;;5088884;27;20075;-75
2022/05/16 13:14:27;;;;;;;13.20;9.10;;;;;;;;;;5085136;28;20752;-74
2022/05/16 13:16:55;;;;;;;15.70;9.87;;;;;;;;;;5092455;28;20303;-74
2022/05/16 13:19:24;;;;;;;16.55;10.65;;;;;;;;;;5090487;28;20331;-74
2022/05/16 13:22:01;;;;;;;19.00;9.50;;;;;;;;;;5083830;28;20048;-74
2022/05/16 13:24:28;;;;;;;15.77;10.20;;;;;;;;;;5084558;28;20517;-73
2022/05/16 13:29:56;;;;;;;13.15;10.07;;;;;;;;;;5063455;28;20097;-74
2022/05/16 13:32:29;;;;;;;14.80;8.65;;;;;;;;;;5084165;28;20040;-74
2022/05/16 13:35:00;;;;;;;13.13;10.73;;;;;;;;;;5089153;28;20098;-74
2022/05/16 13:37:27;;;;;;;18.67;11.93;;;;;;;;;;5098024;28;20046;-73
2022/05/16 13:40:01;;;;;;;16.92;11.65;;;;;;;;;;5094726;28;20612;-74
2022/05/16 13:42:28;;;;;;;19.38;11.18;;;;;;;;;;5092362;28;20436;-74
2022/05/16 13:44:58;;;;;;;14.85;10.57;;;;;;;;;;5085469;28;20167;-74
2022/05/16 13:47:26;;;;;;;16.10;9.60;;;;;;;;;;5085068;28;20058;-74
2022/05/16 13:49:52;;;;;;;18.75;11.63;;;;;;;;;;5083625;28;20058;-74
2022/05/16 13:52:35;;;;;;;16.10;11.73;;;;;;;;;;5081340;28;20579;-73
2022/05/16 13:55:01;;;;;;;12.63;10.40;;;;;;;;;;5093143;28;20047;-73
2022/05/16 13:57:28;;;;;;;14.73;10.05;;;;;;;;;;5088130;28;20048;-73
2022/05/16 14:00:33;;;;;;;13.75;10.23;;;;;;;;;;5076486;28;20480;-72
2022/05/16 14:03:20;;;;;;;10.20;8.23;;;;;;;;;;5062881;28;20122;-73
2022/05/16 14:05:46;;;;;;;19.52;9.80;;;;;;;;;;5061063;28;20566;-73
2022/05/16 14:08:25;;;;;;;16.65;10.88;;;;;;;;;;5085055;27;20101;-73
2022/05/16 14:10:52;;;;;;;15.63;8.98;;;;;;;;;;5095393;27;20085;-74
2022/05/16 14:13:21;;;;;;;14.10;9.63;;;;;;;;;;5088838;27;20047;-73
2022/05/16 14:15:53;;;;;;;13.15;8.50;;;;;;;;;;5095122;28;20065;-73
2022/05/16 14:18:29;;;;;;;14.60;8.88;;;;;;;;;;5092574;28;20111;-73
2022/05/16 14:20:57;;;;;;;19.00;10.90;;;;;;;;;;5085424;27;20096;-73
2022/05/16 14:23:23;;;;;;;15.40;10.80;;;;;;;;;;5093638;27;20120;-72
2022/05/16 14:25:53;;;;;;;17.38;12.52;;;;;;;;;;5087926;27;20559;-72
2022/05/16 14:28:19;;;;;;;13.60;10.48;;;;;;;;;;5091720;28;20282;-72
2022/05/16 14:30:55;;;;;;;15.48;10.80;;;;;;;;;;5088041;27;20086;-72
2022/05/16 14:33:21;;;;;;;15.85;11.77;;;;;;;;;;5095516;28;20031;-73
2022/05/16 14:36:03;;;;;;;16.13;10.80;;;;;;;;;;5092199;28;20482;-73
2022/05/16 14:38:38;;;;;;;17.30;11.48;;;;;;;;;;5088119;27;20459;-73
2022/05/16 14:41:13;;;;;;;15.35;10.68;;;;;;;;;;5085043;28;20055;-73
2022/05/16 14:43:39;;;;;;;20.42;12.20;;;;;;;;;;5094051;27;20054;-72
2022/05/16 14:49:01;;;;;;;15.95;12.30;;;;;;;;;;5095040;28;20509;-73
2022/05/16 14:51:29;;;;;;;21.92;13.43;;;;;;;;;;5099422;27;20682;-72
2022/05/16 14:53:55;;;;;;;19.52;12.27;;;;;;;;;;5093272;28;20477;-72
2022/05/16 14:56:22;;;;;;;18.75;12.38;;;;;;;;;;5095009;28;20048;-72
2022/05/16 14:58:48;;;;;;;20.13;13.40;;;;;;;;;;5090222;28;20151;-72
2022/05/16 15:04:03;;;;;;;17.75;12.82;;;;;;;;;;5088710;27;20101;-72
2022/05/16 15:06:30;;;;;;;22.80;12.52;;;;;;;;;;5090314;28;20048;-72
2022/05/16 15:08:57;;;;;;;24.40;13.75;;;;;;;;;;5095124;27;20477;-72
2022/05/16 15:11:25;;;;;;;19.05;11.40;;;;;;;;;;5095937;28;20043;-72
2022/05/16 15:13:51;;;;;;;23.25;11.95;;;;;;;;;;5095418;28;20047;-72
2022/05/16 15:16:18;;;;;;;20.25;12.73;;;;;;;;;;5094207;27;20044;-72
2022/05/16 15:18:44;;;;;;;23.02;14.38;;;;;;;;;;5093653;28;20417;-71
2022/05/16 15:21:11;;;;;;;23.45;13.23;;;;;;;;;;5090685;28;20071;-72
2022/05/16 15:23:37;;;;;;;24.40;14.68;;;;;;;;;;5095406;27;20067;-72
2022/05/16 15:26:05;;;;;;;24.02;14.52;;;;;;;;;;5092111;27;20101;-72
2022/05/16 15:28:31;;;;;;;20.45;13.27;;;;;;;;;;5095420;28;20048;-72